createdAt,value
2023-05-19T00:01:02.531Z,1.40
2023-05-19T00:03:31.903Z,1.35
2023-05-19T00:06:04.106Z,1.50
2023-05-19T00:08:33.634Z,1.48
2023-05-19T00:11:03.137Z,1.50
2023-05-19T00:13:31.993Z,1.73
2023-05-19T00:16:00.915Z,1.42
2023-05-19T00:18:30.600Z,1.45
2023-05-19T00:20:59.262Z,1.55
2023-05-19T00:23:29.510Z,1.60
2023-05-19T00:25:58.228Z,1.48
2023-05-19T00:28:26.915Z,1.75
2023-05-19T00:30:56.089Z,2.28
2023-05-19T00:33:24.871Z,3.13
2023-05-19T00:35:53.626Z,2.15
2023-05-19T00:38:22.397Z,1.77
2023-05-19T00:40:52.623Z,1.90
2023-05-19T00:43:21.474Z,2.22
2023-05-19T00:45:50.218Z,3.13
2023-05-19T00:48:18.949Z,2.38
2023-05-19T00:50:47.760Z,1.98
2023-05-19T00:53:16.856Z,1.60
2023-05-19T00:55:45.917Z,1.52
2023-05-19T00:58:16.433Z,2.13
2023-05-19T01:00:45.787Z,1.83
2023-05-19T01:03:15.192Z,2.28
2023-05-19T01:05:45.045Z,1.52
2023-05-19T01:08:13.820Z,1.67
2023-05-19T01:10:42.919Z,1.63
2023-05-19T01:13:11.568Z,1.60
2023-05-19T01:15:48.063Z,1.67
2023-05-19T01:18:20.801Z,1.60
2023-05-19T01:20:53.374Z,1.58
2023-05-19T01:23:38.074Z,1.40
2023-05-19T01:26:13.868Z,1.90
2023-05-19T01:28:55.113Z,1.80
2023-05-19T01:31:25.921Z,1.60
2023-05-19T01:33:55.617Z,1.20
2023-05-19T01:36:25.386Z,2.00
2023-05-19T01:38:54.409Z,1.52
2023-05-19T01:41:24.414Z,1.30
2023-05-19T01:43:54.316Z,1.58
2023-05-19T01:46:25.784Z,1.55
2023-05-19T01:48:55.249Z,1.63
2023-05-19T01:51:23.940Z,1.17
2023-05-19T01:53:52.728Z,1.40
2023-05-19T01:56:23.173Z,1.50
2023-05-19T01:58:55.108Z,1.45
2023-05-19T02:01:29.102Z,1.52
2023-05-19T02:04:13.317Z,1.40
2023-05-19T02:06:43.686Z,1.40
2023-05-19T02:09:17.421Z,1.30
2023-05-19T02:11:49.638Z,1.65
2023-05-19T02:14:22.088Z,1.20
2023-05-19T02:16:52.593Z,1.70
2023-05-19T02:19:26.139Z,1.50
2023-05-19T02:21:57.482Z,1.65
2023-05-19T02:24:27.466Z,1.98
2023-05-19T02:26:56.261Z,1.60
2023-05-19T02:29:25.109Z,1.60
2023-05-19T02:31:55.333Z,1.27
2023-05-19T02:34:24.143Z,1.40
2023-05-19T02:36:52.838Z,1.48
2023-05-19T02:39:21.601Z,1.60
2023-05-19T02:41:50.314Z,1.42
2023-05-19T02:44:19.041Z,1.60
2023-05-19T02:46:47.773Z,1.58
2023-05-19T02:49:17.887Z,1.65
2023-05-19T02:51:46.677Z,1.60
2023-05-19T02:54:15.553Z,1.50
2023-05-19T02:56:44.209Z,2.20
2023-05-19T02:59:12.876Z,1.63
2023-05-19T03:01:41.806Z,1.50
2023-05-19T03:04:11.282Z,1.77
2023-05-19T03:06:42.237Z,1.90
2023-05-19T03:09:11.657Z,1.50
2023-05-19T03:11:40.361Z,1.60
2023-05-19T03:14:10.105Z,1.42
2023-05-19T03:16:41.334Z,1.40
2023-05-19T03:19:10.646Z,1.70
2023-05-19T03:21:39.388Z,1.70
2023-05-19T03:24:10.129Z,1.67
2023-05-19T03:26:39.622Z,1.30
2023-05-19T03:29:08.414Z,1.60
2023-05-19T03:31:38.992Z,1.50
2023-05-19T03:34:08.035Z,1.55
2023-05-19T03:36:39.934Z,1.80
2023-05-19T03:39:15.480Z,2.15
2023-05-19T03:41:44.391Z,1.75
2023-05-19T03:44:13.143Z,1.83
2023-05-19T03:46:41.918Z,1.80
2023-05-19T03:49:41.367Z,1.73
2023-05-19T03:52:30.474Z,2.00
2023-05-19T03:55:14.719Z,2.05
2023-05-19T03:57:44.462Z,1.73
2023-05-19T04:00:13.729Z,1.70
2023-05-19T04:02:42.537Z,2.15
2023-05-19T04:05:12.414Z,1.77
2023-05-19T04:07:41.256Z,2.28
2023-05-19T04:10:10.369Z,2.03
2023-05-19T04:12:40.594Z,1.90
2023-05-19T04:15:11.525Z,1.67
2023-05-19T04:17:40.471Z,1.98
2023-05-19T04:20:10.030Z,1.85
2023-05-19T04:22:38.757Z,1.73
2023-05-19T04:25:08.286Z,1.98
2023-05-19T04:27:39.013Z,2.22
2023-05-19T04:30:10.468Z,1.70
2023-05-19T04:32:39.703Z,1.42
2023-05-19T04:35:08.955Z,1.90
2023-05-19T04:37:38.407Z,1.65
2023-05-19T04:40:11.258Z,1.75
2023-05-19T04:42:42.780Z,1.90
2023-05-19T04:45:14.935Z,1.60
2023-05-19T04:47:48.162Z,1.75
2023-05-19T04:50:17.303Z,1.90
2023-05-19T04:52:46.614Z,3.35
2023-05-19T04:55:17.194Z,2.22
2023-05-19T04:57:47.040Z,2.05
2023-05-19T05:00:17.846Z,1.73
2023-05-19T05:03:00.542Z,1.85
2023-05-19T05:05:32.015Z,1.73
2023-05-19T05:08:00.797Z,2.00
2023-05-19T05:10:33.883Z,1.60
2023-05-19T05:13:03.238Z,1.90
2023-05-19T05:15:33.964Z,1.65
2023-05-19T05:18:05.065Z,1.85
2023-05-19T05:20:34.566Z,1.70
2023-05-19T05:23:04.057Z,1.75
2023-05-19T05:25:34.673Z,1.60
2023-05-19T05:28:05.290Z,1.52
2023-05-19T05:30:38.040Z,1.98
2023-05-19T05:33:09.036Z,1.95
2023-05-19T05:35:43.010Z,1.40
2023-05-19T05:38:14.006Z,2.28
2023-05-19T05:40:43.884Z,1.90
2023-05-19T05:43:12.637Z,1.48
2023-05-19T05:45:49.238Z,1.45
2023-05-19T05:48:18.493Z,1.65
2023-05-19T05:50:47.716Z,1.90
2023-05-19T05:53:20.951Z,1.85
2023-05-19T05:55:53.607Z,1.67
2023-05-19T05:58:24.974Z,2.03
2023-05-19T06:00:57.713Z,1.48
2023-05-19T06:03:27.790Z,1.73
2023-05-19T06:05:58.557Z,1.90
2023-05-19T06:08:27.445Z,1.70
2023-05-19T06:10:56.262Z,1.58
2023-05-19T06:13:26.065Z,1.33
2023-05-19T06:15:56.413Z,1.60
2023-05-19T06:18:29.565Z,1.63
2023-05-19T06:20:58.389Z,1.50
2023-05-19T06:23:29.099Z,1.55
2023-05-19T06:25:58.196Z,1.67
2023-05-19T06:28:26.888Z,1.33
2023-05-19T06:30:57.047Z,1.40
2023-05-19T06:33:35.422Z,1.75
2023-05-19T06:36:04.230Z,1.48
2023-05-19T06:38:33.342Z,1.05
2023-05-19T06:41:02.472Z,1.00
2023-05-19T06:43:31.313Z,1.25
2023-05-19T06:46:06.276Z,1.38
2023-05-19T06:48:35.679Z,1.30
2023-05-19T06:51:05.527Z,1.20
2023-05-19T06:53:36.154Z,1.30
2023-05-19T06:56:09.577Z,1.38
2023-05-19T06:58:40.569Z,1.08
2023-05-19T07:01:10.750Z,1.50
2023-05-19T07:03:45.402Z,1.13
2023-05-19T07:06:15.406Z,1.52
2023-05-19T07:08:44.505Z,1.35
2023-05-19T07:11:14.363Z,1.10
2023-05-19T07:13:44.014Z,2.05
2023-05-19T07:16:14.960Z,1.27
2023-05-19T07:18:43.836Z,1.20
2023-05-19T07:21:13.352Z,1.20
2023-05-19T07:23:42.115Z,1.10
2023-05-19T07:26:10.900Z,1.50
2023-05-19T07:28:41.440Z,1.45
2023-05-19T07:31:10.720Z,1.30
2023-05-19T07:33:40.928Z,1.42
2023-05-19T07:36:09.827Z,1.35
2023-05-19T07:38:38.665Z,1.55
2023-05-19T07:41:07.679Z,0.93
2023-05-19T07:43:36.328Z,1.10
2023-05-19T07:46:05.190Z,1.48
2023-05-19T07:48:34.044Z,1.55
2023-05-19T07:51:04.191Z,1.15
2023-05-19T07:53:32.993Z,1.23
2023-05-19T07:56:01.757Z,1.30
2023-05-19T07:58:30.487Z,1.25
2023-05-19T08:00:59.698Z,1.40
2023-05-19T08:03:28.808Z,1.30
2023-05-19T08:05:57.702Z,1.15
2023-05-19T08:08:28.056Z,1.58
2023-05-19T08:10:56.722Z,1.20
2023-05-19T08:13:25.539Z,1.15
2023-05-19T08:15:59.552Z,1.30
2023-05-19T08:18:28.444Z,1.10
2023-05-19T08:20:57.209Z,1.25
2023-05-19T08:23:25.979Z,1.00
2023-05-19T08:25:56.354Z,1.50
2023-05-19T08:28:25.056Z,0.95
2023-05-19T08:30:53.950Z,1.10
2023-05-19T08:33:22.942Z,1.20
2023-05-19T08:35:51.713Z,1.08
2023-05-19T08:38:20.904Z,1.95
2023-05-19T08:40:49.603Z,1.10
2023-05-19T08:43:20.133Z,1.42
2023-05-19T08:45:48.990Z,1.50
2023-05-19T08:48:19.338Z,1.50
2023-05-19T08:50:51.587Z,1.73
2023-05-19T08:53:32.564Z,1.38
2023-05-19T08:56:04.171Z,1.73
2023-05-19T08:58:35.303Z,1.40
2023-05-19T09:01:04.645Z,2.08
2023-05-19T09:03:38.273Z,1.30
2023-05-19T09:06:08.697Z,1.33
2023-05-19T09:08:37.714Z,1.20
2023-05-19T09:11:06.653Z,1.20
2023-05-19T09:13:36.879Z,1.90
2023-05-19T09:16:05.711Z,1.30
2023-05-19T09:18:34.405Z,1.38
2023-05-19T09:21:03.610Z,1.33
2023-05-19T09:23:33.559Z,1.35
2023-05-19T09:26:05.082Z,1.13
2023-05-19T09:28:34.607Z,1.25
2023-05-19T09:31:05.366Z,1.38
2023-05-19T09:33:35.466Z,1.40
2023-05-19T09:36:06.085Z,0.95
2023-05-19T09:38:34.981Z,0.98
2023-05-19T09:41:03.819Z,1.10
2023-05-19T09:43:33.663Z,1.33
2023-05-19T09:46:02.826Z,1.30
2023-05-19T09:48:32.871Z,1.70
2023-05-19T09:51:02.466Z,1.15
2023-05-19T09:53:32.558Z,1.30
2023-05-19T09:56:04.138Z,1.17
2023-05-19T09:58:35.445Z,1.15
2023-05-19T10:01:05.595Z,1.40
2023-05-19T10:03:36.806Z,1.58
2023-05-19T10:06:07.439Z,1.27
2023-05-19T10:08:37.003Z,1.20
2023-05-19T10:11:06.213Z,1.38
2023-05-19T10:13:38.591Z,1.08
2023-05-19T10:16:07.793Z,1.27
2023-05-19T10:18:39.928Z,1.20
2023-05-19T10:21:10.295Z,1.27
2023-05-19T10:23:39.178Z,1.35
2023-05-19T10:26:08.709Z,1.27
2023-05-19T10:28:39.222Z,1.05
2023-05-19T10:31:09.826Z,1.38
2023-05-19T10:33:43.889Z,1.20
2023-05-19T10:36:17.721Z,1.20
2023-05-19T10:38:50.244Z,1.20
2023-05-19T10:41:26.148Z,1.42
2023-05-19T10:43:58.057Z,1.38
2023-05-19T10:46:26.979Z,1.25
2023-05-19T10:48:58.571Z,1.48
2023-05-19T10:51:31.416Z,1.27
2023-05-19T10:54:02.453Z,1.17
2023-05-19T10:56:34.875Z,1.52
2023-05-19T10:59:03.830Z,1.15
2023-05-19T11:01:33.412Z,1.10
2023-05-19T11:04:09.165Z,1.42
2023-05-19T11:06:38.771Z,1.23
2023-05-19T11:09:14.660Z,1.58
2023-05-19T11:11:47.133Z,1.13
2023-05-19T11:14:17.173Z,1.63
2023-05-19T11:16:48.272Z,1.20
2023-05-19T11:19:27.415Z,1.10
2023-05-19T11:21:57.355Z,1.30
2023-05-19T11:24:36.374Z,1.52
2023-05-19T11:27:26.408Z,1.30
2023-05-19T11:29:55.756Z,1.30
2023-05-19T11:32:24.844Z,1.25
2023-05-19T11:34:55.204Z,1.08
2023-05-19T11:37:24.185Z,1.05
2023-05-19T11:39:53.523Z,1.00
2023-05-19T11:42:22.922Z,1.20
2023-05-19T11:44:51.750Z,1.00
2023-05-19T11:47:20.618Z,1.10
2023-05-19T11:49:53.418Z,1.20
2023-05-19T11:52:24.873Z,1.35
2023-05-19T11:54:53.589Z,1.40
2023-05-19T11:57:22.739Z,0.90
2023-05-19T11:59:53.342Z,1.42
2023-05-19T12:02:22.719Z,1.23
2023-05-19T12:04:51.617Z,1.15
2023-05-19T12:07:22.848Z,1.13
2023-05-19T12:09:53.707Z,1.20
2023-05-19T12:12:23.012Z,1.30
2023-05-19T12:14:52.256Z,1.30
2023-05-19T12:17:23.870Z,0.98
2023-05-19T12:19:52.944Z,1.00
2023-05-19T12:22:21.889Z,1.00
2023-05-19T12:24:51.188Z,1.10
2023-05-19T12:27:22.155Z,0.98
2023-05-19T12:29:54.340Z,1.10
2023-05-19T12:32:25.449Z,1.20
2023-05-19T12:34:54.475Z,0.95
2023-05-19T12:37:23.307Z,1.25
2023-05-19T12:39:52.081Z,1.33
2023-05-19T12:42:22.118Z,1.00
2023-05-19T12:44:53.336Z,1.13
2023-05-19T12:47:22.562Z,1.45
2023-05-19T12:49:57.928Z,1.08
2023-05-19T12:52:27.028Z,1.02
2023-05-19T12:55:00.523Z,1.08
2023-05-19T12:57:32.067Z,1.10
2023-05-19T13:00:07.106Z,1.10
2023-05-19T13:02:36.813Z,1.00
2023-05-19T13:05:05.855Z,1.52
2023-05-19T13:07:35.776Z,1.30
2023-05-19T13:10:04.653Z,1.13
2023-05-19T13:12:34.835Z,0.70
2023-05-19T13:15:03.611Z,1.23
2023-05-19T13:17:32.558Z,1.33
2023-05-19T13:20:01.264Z,0.90
2023-05-19T13:22:30.534Z,1.10
2023-05-19T13:24:59.865Z,1.13
2023-05-19T13:27:28.642Z,1.10
2023-05-19T13:29:58.846Z,1.08
2023-05-19T13:32:27.550Z,1.00
2023-05-19T13:34:56.316Z,1.20
2023-05-19T13:37:25.236Z,1.00
2023-05-19T13:39:54.089Z,1.08
2023-05-19T13:42:22.796Z,1.02
2023-05-19T13:44:51.611Z,1.10
2023-05-19T13:47:21.832Z,1.08
2023-05-19T13:49:50.680Z,0.90
2023-05-19T13:52:19.679Z,1.20
2023-05-19T13:54:48.582Z,0.95
2023-05-19T13:57:17.547Z,1.25
2023-05-19T14:00:00.879Z,1.00
2023-05-19T14:02:42.497Z,1.05
2023-05-19T14:05:11.313Z,1.20
2023-05-19T14:07:39.979Z,1.00
2023-05-19T14:10:09.409Z,0.90
2023-05-19T14:12:55.222Z,1.08
2023-05-19T14:15:26.940Z,1.08
2023-05-19T14:17:59.071Z,0.90
2023-05-19T14:20:29.339Z,1.02
2023-05-19T14:22:58.506Z,1.10
2023-05-19T14:25:27.324Z,1.00
2023-05-19T14:27:55.980Z,0.85
2023-05-19T14:30:24.750Z,1.00
2023-05-19T14:32:53.492Z,1.10
2023-05-19T14:35:24.082Z,0.85
2023-05-19T14:37:53.048Z,1.30
2023-05-19T14:40:21.880Z,0.85
2023-05-19T14:42:50.688Z,1.08
2023-05-19T14:45:19.375Z,1.10
2023-05-19T14:47:48.171Z,0.98
2023-05-19T14:50:17.069Z,1.10
2023-05-19T14:52:47.103Z,1.10
2023-05-19T14:55:15.799Z,1.00
2023-05-19T14:57:44.449Z,1.00
2023-05-19T15:00:13.574Z,1.20
2023-05-19T15:02:42.485Z,1.13
2023-05-19T15:05:11.792Z,1.40
2023-05-19T15:07:40.536Z,1.38
2023-05-19T15:10:11.096Z,1.20
2023-05-19T15:12:39.850Z,1.02
2023-05-19T15:15:09.234Z,1.10
2023-05-19T15:17:38.095Z,1.20
2023-05-19T15:20:07.437Z,1.60
2023-05-19T15:22:36.455Z,3.53
2023-05-19T15:25:05.233Z,1.20
2023-05-19T15:27:36.334Z,1.15
2023-05-19T15:30:05.214Z,1.30
2023-05-19T15:32:34.781Z,1.08
2023-05-19T15:35:03.505Z,1.10
2023-05-19T15:37:32.391Z,1.15
2023-05-19T15:40:01.186Z,1.00
2023-05-19T15:42:30.017Z,1.13
2023-05-19T15:45:00.341Z,1.00
2023-05-19T15:47:29.113Z,1.10
2023-05-19T15:49:57.858Z,1.65
2023-05-19T15:52:26.881Z,1.27
2023-05-19T15:54:58.997Z,1.00
2023-05-19T15:57:27.817Z,1.10
2023-05-19T15:59:56.548Z,0.95
2023-05-19T16:02:26.995Z,1.05
2023-05-19T16:04:56.009Z,1.20
2023-05-19T16:07:24.895Z,0.80
2023-05-19T16:09:53.572Z,0.90
2023-05-19T16:12:22.344Z,1.10
2023-05-19T16:14:51.049Z,1.00
2023-05-19T16:17:19.786Z,0.85
2023-05-19T16:19:49.867Z,1.20
2023-05-19T16:22:19.157Z,1.00
2023-05-19T16:24:47.898Z,1.00
2023-05-19T16:27:16.613Z,1.00
2023-05-19T16:29:45.396Z,0.90
2023-05-19T16:32:14.379Z,1.10
2023-05-19T16:34:43.160Z,1.00
2023-05-19T16:37:13.349Z,1.02
2023-05-19T16:39:43.772Z,1.27
2023-05-19T16:42:12.519Z,1.10
2023-05-19T16:44:42.397Z,1.00
2023-05-19T16:47:11.266Z,1.10
2023-05-19T16:49:40.918Z,1.20
2023-05-19T16:52:09.765Z,1.20
2023-05-19T16:54:39.967Z,1.02
2023-05-19T16:57:08.707Z,1.30
2023-05-19T16:59:37.413Z,1.55
2023-05-19T17:02:06.500Z,1.50
2023-05-19T17:04:35.185Z,1.35
2023-05-19T17:07:04.057Z,1.10
2023-05-19T17:09:33.036Z,1.33
2023-05-19T17:12:03.123Z,1.00
2023-05-19T17:14:31.837Z,1.40
2023-05-19T17:17:00.597Z,1.50
2023-05-19T17:19:29.367Z,1.10
2023-05-19T17:21:58.283Z,1.38
2023-05-19T17:24:28.852Z,1.08
2023-05-19T17:26:57.518Z,1.00
2023-05-19T17:29:28.013Z,1.30
2023-05-19T17:31:57.273Z,1.10
2023-05-19T17:34:26.453Z,1.00
2023-05-19T17:36:55.246Z,0.93
2023-05-19T17:39:23.949Z,1.27
2023-05-19T17:41:52.682Z,1.08
2023-05-19T17:44:21.410Z,1.20
2023-05-19T17:46:51.751Z,1.00
2023-05-19T17:49:23.006Z,1.10
2023-05-19T17:51:51.986Z,1.23
2023-05-19T17:54:22.050Z,1.05
2023-05-19T17:56:52.578Z,1.10
2023-05-19T17:59:21.713Z,1.65
2023-05-19T18:01:52.414Z,1.00
2023-05-19T18:04:21.665Z,0.85
2023-05-19T18:06:53.217Z,1.13
2023-05-19T18:09:22.139Z,0.90
2023-05-19T18:11:50.987Z,0.93
2023-05-19T18:14:19.752Z,1.13
2023-05-19T18:16:49.982Z,1.15
2023-05-19T18:19:20.397Z,1.15
2023-05-19T18:21:49.211Z,1.05
2023-05-19T18:24:17.983Z,1.17
2023-05-19T18:26:49.700Z,1.00
2023-05-19T18:29:18.483Z,1.25
2023-05-19T18:31:47.310Z,0.90
2023-05-19T18:34:16.220Z,1.05
2023-05-19T18:36:46.350Z,1.10
2023-05-19T18:39:15.159Z,1.10
2023-05-19T18:41:43.932Z,0.90
2023-05-19T18:44:13.112Z,0.80
2023-05-19T18:46:41.937Z,1.00
2023-05-19T18:49:11.845Z,0.90
2023-05-19T18:51:42.068Z,0.90
2023-05-19T18:54:12.588Z,1.00
2023-05-19T18:56:41.426Z,1.00
2023-05-19T18:59:11.252Z,0.85
2023-05-19T19:01:40.149Z,1.00
2023-05-19T19:04:09.070Z,1.00
2023-05-19T19:06:37.796Z,0.82
2023-05-19T19:09:06.563Z,1.13
2023-05-19T19:11:36.738Z,0.90
2023-05-19T19:14:05.440Z,1.05
2023-05-19T19:16:36.998Z,1.00
2023-05-19T19:19:06.066Z,0.98
2023-05-19T19:21:34.957Z,0.95
2023-05-19T19:24:03.730Z,0.80
2023-05-19T19:26:32.429Z,0.85
2023-05-19T19:29:02.682Z,1.00
2023-05-19T19:31:33.227Z,0.80
2023-05-19T19:34:08.020Z,1.08
2023-05-19T19:36:36.783Z,0.85
2023-05-19T19:39:05.633Z,1.10
2023-05-19T19:41:34.491Z,1.42
2023-05-19T19:44:04.602Z,1.10
2023-05-19T19:46:33.478Z,1.20
2023-05-19T19:49:02.641Z,1.00
2023-05-19T19:51:31.579Z,1.20
2023-05-19T19:54:00.463Z,1.00
2023-05-19T19:56:29.141Z,0.90
2023-05-19T19:58:59.037Z,1.00
2023-05-19T20:01:29.597Z,1.20
2023-05-19T20:03:58.881Z,1.10
2023-05-19T20:06:27.795Z,1.08
2023-05-19T20:08:56.575Z,0.95
2023-05-19T20:11:26.822Z,1.10
2023-05-19T20:13:55.719Z,1.05
2023-05-19T20:16:25.194Z,0.90
2023-05-19T20:18:55.384Z,0.90
2023-05-19T20:21:24.256Z,0.95
2023-05-19T20:23:52.992Z,1.00
2023-05-19T20:26:22.485Z,1.30
2023-05-19T20:28:51.359Z,1.00
2023-05-19T20:31:21.539Z,1.20
2023-05-19T20:33:50.327Z,1.00
2023-05-19T20:36:20.464Z,1.10
2023-05-19T20:38:49.231Z,1.00
2023-05-19T20:41:17.932Z,1.42
2023-05-19T20:43:46.698Z,1.35
2023-05-19T20:46:15.567Z,1.10
2023-05-19T20:48:44.276Z,1.08
2023-05-19T20:51:13.099Z,1.60
2023-05-19T20:53:43.162Z,1.42
2023-05-19T20:56:11.850Z,0.90
2023-05-19T20:58:40.750Z,1.10
2023-05-19T21:01:09.507Z,1.30
2023-05-19T21:03:38.238Z,1.38
2023-05-19T21:06:07.113Z,1.17
2023-05-19T21:08:35.883Z,1.00
2023-05-19T21:11:05.933Z,1.10
2023-05-19T21:13:39.020Z,1.20
2023-05-19T21:16:08.208Z,1.10
2023-05-19T21:18:36.962Z,1.52
2023-05-19T21:21:05.740Z,1.10
2023-05-19T21:23:34.560Z,1.45
2023-05-19T21:26:04.275Z,1.00
2023-05-19T21:28:34.337Z,1.20
2023-05-19T21:31:05.410Z,1.30
2023-05-19T21:33:34.267Z,0.93
2023-05-19T21:36:03.079Z,1.00
2023-05-19T21:38:31.808Z,1.10
2023-05-19T21:41:00.523Z,1.10
2023-05-19T21:43:29.423Z,1.15
2023-05-19T21:45:59.594Z,1.20
2023-05-19T21:48:28.363Z,1.30
2023-05-19T21:50:57.783Z,1.13
2023-05-19T21:53:26.893Z,1.30
2023-05-19T21:55:55.826Z,1.40
2023-05-19T21:58:25.071Z,1.15
2023-05-19T22:00:54.463Z,1.15
2023-05-19T22:03:24.777Z,1.17
2023-05-19T22:05:54.259Z,1.10
2023-05-19T22:08:23.366Z,1.30
2023-05-19T22:10:52.141Z,1.25
2023-05-19T22:13:21.332Z,1.20
2023-05-19T22:15:50.249Z,1.25
2023-05-19T22:18:19.040Z,1.23
2023-05-19T22:20:49.141Z,1.25
2023-05-19T22:23:17.897Z,1.23
2023-05-19T22:25:47.014Z,1.40
2023-05-19T22:28:15.703Z,1.00
2023-05-19T22:30:44.437Z,1.20
2023-05-19T22:33:13.356Z,1.35
2023-05-19T22:35:42.524Z,1.23
2023-05-19T22:38:12.942Z,1.30
2023-05-19T22:40:41.694Z,1.27
2023-05-19T22:43:10.371Z,1.40
2023-05-19T22:45:39.096Z,1.40
2023-05-19T22:48:08.223Z,1.10
2023-05-19T22:50:37.116Z,1.20
2023-05-19T22:53:05.886Z,1.15
2023-05-19T22:55:36.102Z,1.10
2023-05-19T22:58:05.082Z,1.10
2023-05-19T23:00:33.906Z,1.50
2023-05-19T23:03:02.774Z,1.50
2023-05-19T23:05:31.580Z,1.20
2023-05-19T23:08:01.086Z,1.30
2023-05-19T23:10:31.414Z,1.60
2023-05-19T23:13:01.454Z,1.55
2023-05-19T23:15:30.268Z,1.30
2023-05-19T23:17:59.097Z,1.38
2023-05-19T23:20:28.019Z,1.52
2023-05-19T23:22:56.918Z,1.40
2023-05-19T23:25:25.723Z,1.33
2023-05-19T23:27:54.519Z,1.58
2023-05-19T23:30:24.590Z,1.40
2023-05-19T23:32:53.388Z,1.20
2023-05-19T23:35:22.234Z,1.50
2023-05-19T23:37:51.074Z,1.42
2023-05-19T23:40:19.906Z,1.15
2023-05-19T23:42:48.654Z,1.08
2023-05-19T23:45:17.381Z,1.27
2023-05-19T23:47:47.634Z,1.10
2023-05-19T23:50:16.404Z,1.20
2023-05-19T23:52:45.053Z,1.30
2023-05-19T23:55:15.036Z,1.00
2023-05-19T23:57:44.007Z,1.50
